Skip Navigation Links
NOAA logo - Click to go to the NOAA homepage
NOAA's National Weather Service
Alaska Aviation Weather Unit
  NWS logo - Click to go to the NWS homepage
Left Navbar Graphic     19 AKDT = 03 GMT

   
NOAA is celebrating 200 years of science, service, and stewardship. Visit the NOAA 200th celebration Web site to learn more.
USA.gov is the U.S. Government's official Web portal to all Federal, state and local government Web resources and services.
Facebook
NWS on Facebook

Important Change Regarding the AAWU Web Presence

 

Over the last several months, the AAWU has been working to navigate its webpages to a nationally supported server. Security, as well as other needs, have necessitated the change.  We have been given an extension for the site changeover while we diligently work at addressing feedback received. As of July 14, 2017, aawu.arh.noaa.gov will be discontinued. The new AAWU web address is weather.gov/aawu. It is now live and will run in-parallel with the old site until it is discontinued on July 14, 2017. Please continue to send any feedback or questions regarding the new webpages to nws.ar.aawu.webauthors@noaa.gov.  Thank you for your patience during this time of transition.
AAWU Home :: Display TAF Add Bookmark
TAF PACV 290304Z 2903/2924 14005KT P6SM -SHRA SCT015 BKN035
      TEMPO 2903/2905 BKN015
     FM290500 09005KT 3SM -RA BR BKN007 OVC015
     FM290900 08004KT P6SM OVC025=
METAR PACV 282153Z 09005KT 10SM FEW014 OVC026 12/09 A3008 RMK AO2
 RAE04B34E52 SLP186 P0001 T01170094 $=

PACV 282228Z 18007KT 10SM SCT010 BKN014 OVC024 12/11 A3008 RMK AO2
     T01170111 $=

METAR PACV 282253Z 14006KT 10SM SCT008 BKN024 OVC031 12/11 A3008 RMK
 AO2 RAB38E49 SLP187 P0001 T01170111 $=

SPECI PACV 282335Z 14007KT 10SM BKN014 BKN021 OVC031 13/11 A3008 RMK
 AO2 RAB2257E16 P0000 T01280111 $=

METAR PACV 282353Z 03007KT 10SM -RA SCT015 BKN020 OVC037 13/11 A3008
 RMK AO2 RAB2257E16B44 SLP185 P0000 60002 T01330111 10133 20117
 58002 $=

METAR PACV 290053Z 10010KT 10SM FEW011 BKN028 OVC037 14/09 A3007 RMK AO2
     RAE2354 SLP183 P0000 T01390089 $=

PACV 290100Z 14011G17KT 10SM BKN038 OVC060 14/08 A3007 RMK AO2
     T01390083 $=

SPECI PACV 290117Z 16008KT 10SM BKN040 OVC060 12/11 A3007 RMK AO2
 WSHFT 0057 T01220106 $=

METAR PACV 290153Z 16008KT 10SM BKN044 OVC050 12/11 A3007 RMK AO2 WSHFT
     0057 SLP183 T01220106 $=

METAR PACV 290253Z 16005KT 10SM -RA BKN035 BKN042 OVC049 12/11 A3006
 RMK AO2 RAB27 SLP180 P0000 60000 T01220106 58004 $=


NOAA's National Weather Service
Alaska Aviation Weather Unit
6930 Sand Lake Road
Anchorage, AK 99502-1845
Disclaimer
Credits
Glossary
Privacy Policy
About Us
Career Opportunities
Contact AAWU Internet Services Site last modified: April, 17th 2012